createdAt,value
2023-10-30T00:01:10.811Z,100.00
2023-10-30T00:03:59.928Z,100.00
2023-10-30T00:06:47.882Z,100.00
2023-10-30T00:09:35.640Z,100.00
2023-10-30T00:12:23.866Z,100.00
2023-10-30T00:15:11.962Z,100.00
2023-10-30T00:17:59.504Z,100.00
2023-10-30T00:20:48.600Z,100.00
2023-10-30T00:23:37.545Z,100.00
2023-10-30T00:26:25.217Z,100.00
2023-10-30T00:29:13.917Z,100.00
2023-10-30T00:32:01.827Z,100.00
2023-10-30T00:34:49.386Z,85.75
2023-10-30T00:37:38.682Z,67.21
2023-10-30T00:40:27.418Z,52.58
2023-10-30T00:43:15.033Z,8.34
2023-10-30T00:46:02.753Z,0.00
2023-10-30T00:48:50.803Z,0.00
2023-10-30T00:51:38.943Z,0.00
2023-10-30T00:54:28.089Z,0.00
2023-10-30T00:57:16.127Z,0.00
2023-10-30T01:00:05.508Z,0.00
2023-10-30T01:02:53.326Z,0.00
2023-10-30T01:05:41.301Z,0.00
2023-10-30T01:08:29.657Z,0.00
2023-10-30T01:11:19.023Z,0.00
2023-10-30T01:14:06.631Z,0.00
2023-10-30T01:16:54.696Z,0.00
2023-10-30T01:19:42.121Z,0.00
2023-10-30T01:22:33.427Z,0.00
2023-10-30T01:25:21.505Z,0.00
2023-10-30T01:28:11.020Z,0.00
2023-10-30T01:30:58.514Z,13.78
2023-10-30T01:33:46.137Z,30.74
2023-10-30T01:36:33.981Z,59.37
2023-10-30T01:39:21.730Z,100.00
2023-10-30T01:42:09.412Z,100.00
2023-10-30T01:44:59.974Z,100.00
2023-10-30T01:47:47.694Z,100.00
2023-10-30T01:50:36.686Z,100.00
2023-10-30T01:53:25.929Z,100.00
2023-10-30T01:56:13.902Z,100.00
2023-10-30T01:59:02.357Z,100.00
2023-10-30T02:01:52.084Z,100.00
2023-10-30T02:04:42.319Z,100.00
2023-10-30T02:07:31.817Z,100.00
2023-10-30T02:10:19.825Z,100.00
2023-10-30T02:13:10.460Z,100.00
2023-10-30T02:15:57.975Z,100.00
2023-10-30T02:18:46.855Z,100.00
2023-10-30T02:21:34.780Z,100.00
2023-10-30T02:24:23.651Z,100.00
2023-10-30T02:27:12.894Z,100.00
2023-10-30T02:30:00.755Z,100.00
2023-10-30T02:32:48.865Z,100.00
2023-10-30T02:35:38.228Z,100.00
2023-10-30T02:38:25.748Z,100.00
2023-10-30T02:41:15.897Z,100.00
2023-10-30T02:44:05.808Z,100.00
2023-10-30T02:46:53.652Z,100.00
2023-10-30T02:49:41.351Z,100.00
2023-10-30T02:52:30.546Z,100.00
2023-10-30T02:55:18.190Z,100.00
2023-10-30T02:58:05.781Z,100.00
2023-10-30T03:00:57.478Z,100.00
2023-10-30T03:03:45.098Z,100.00
2023-10-30T03:06:33.227Z,100.00
2023-10-30T03:09:21.516Z,100.00
2023-10-30T03:12:09.622Z,100.00
2023-10-30T03:14:57.660Z,100.00
2023-10-30T03:17:47.024Z,100.00
2023-10-30T03:20:34.605Z,100.00
2023-10-30T03:23:22.460Z,100.00
2023-10-30T03:26:10.070Z,100.00
2023-10-30T03:28:57.913Z,100.00
2023-10-30T03:31:46.480Z,100.00
2023-10-30T03:34:37.557Z,100.00
2023-10-30T03:37:25.369Z,100.00
2023-10-30T03:40:14.899Z,100.00
2023-10-30T03:43:02.573Z,100.00
2023-10-30T03:45:50.317Z,100.00
2023-10-30T03:48:38.137Z,100.00
2023-10-30T03:51:27.650Z,100.00
2023-10-30T03:54:15.519Z,100.00
2023-10-30T03:57:03.300Z,100.00
2023-10-30T03:59:50.756Z,100.00
2023-10-30T04:02:38.690Z,100.00
2023-10-30T04:05:26.417Z,100.00
2023-10-30T04:08:15.399Z,100.00
2023-10-30T04:11:11.511Z,100.00
2023-10-30T04:13:59.302Z,100.00
2023-10-30T04:16:46.964Z,100.00
2023-10-30T04:19:34.925Z,100.00
2023-10-30T04:22:23.235Z,100.00
2023-10-30T04:25:13.342Z,100.00
2023-10-30T04:28:01.293Z,100.00
2023-10-30T04:30:49.296Z,100.00
2023-10-30T04:33:37.498Z,100.00
2023-10-30T04:36:25.196Z,100.00
2023-10-30T04:39:14.682Z,100.00
2023-10-30T04:42:03.953Z,100.00
2023-10-30T04:44:51.571Z,100.00
2023-10-30T04:47:39.318Z,100.00
2023-10-30T04:50:27.369Z,100.00
2023-10-30T04:53:15.163Z,100.00
2023-10-30T04:56:05.172Z,100.00
2023-10-30T04:58:56.422Z,100.00
2023-10-30T05:01:44.094Z,100.00
2023-10-30T05:04:34.322Z,100.00
2023-10-30T05:07:22.609Z,100.00
2023-10-30T05:10:10.985Z,100.00
2023-10-30T05:12:59.016Z,100.00
2023-10-30T05:15:48.129Z,100.00
2023-10-30T05:18:35.916Z,100.00
2023-10-30T05:21:26.247Z,100.00
2023-10-30T05:24:13.823Z,100.00
2023-10-30T05:27:01.557Z,100.00
2023-10-30T05:29:49.315Z,100.00
2023-10-30T05:32:38.766Z,100.00
2023-10-30T05:35:26.812Z,100.00
2023-10-30T05:38:14.321Z,100.00
2023-10-30T05:41:02.014Z,100.00
2023-10-30T05:43:51.396Z,100.00
2023-10-30T05:46:39.287Z,100.00
2023-10-30T05:49:29.136Z,100.00
2023-10-30T05:52:16.955Z,100.00
2023-10-30T05:55:04.781Z,100.00
2023-10-30T05:57:54.376Z,100.00
2023-10-30T06:00:42.218Z,100.00
2023-10-30T06:03:30.102Z,100.00
2023-10-30T06:06:19.196Z,100.00
2023-10-30T06:09:07.481Z,100.00
2023-10-30T06:11:56.223Z,100.00
2023-10-30T06:14:43.968Z,100.00
2023-10-30T06:17:32.658Z,100.00
2023-10-30T06:20:21.565Z,100.00
2023-10-30T06:23:10.953Z,100.00
2023-10-30T06:25:58.700Z,100.00
2023-10-30T06:28:46.798Z,100.00
2023-10-30T06:31:34.940Z,100.00
2023-10-30T06:34:22.920Z,100.00
2023-10-30T06:37:11.184Z,100.00
2023-10-30T06:40:00.502Z,100.00
2023-10-30T06:42:48.217Z,100.00
2023-10-30T06:45:35.994Z,100.00
2023-10-30T06:48:23.485Z,100.00
2023-10-30T06:51:10.880Z,100.00
2023-10-30T06:53:58.707Z,96.36
2023-10-30T06:56:47.929Z,12.11
2023-10-30T06:59:35.815Z,0.00
2023-10-30T07:02:23.306Z,0.00
2023-10-30T07:05:11.191Z,0.00
2023-10-30T07:07:59.013Z,0.00
2023-10-30T07:10:46.457Z,0.00
2023-10-30T07:13:36.544Z,0.00
2023-10-30T07:16:24.570Z,0.00
2023-10-30T07:19:12.455Z,0.00
2023-10-30T07:22:00.270Z,0.00
2023-10-30T07:24:48.401Z,0.00
2023-10-30T07:27:37.862Z,0.00
2023-10-30T07:30:28.209Z,0.00
2023-10-30T07:33:15.951Z,0.00
2023-10-30T07:36:03.631Z,0.00
2023-10-30T07:38:51.201Z,0.00
2023-10-30T07:41:43.565Z,0.00
2023-10-30T07:44:33.282Z,0.00
2023-10-30T07:47:33.023Z,0.00
2023-10-30T07:50:25.550Z,0.00
2023-10-30T07:53:15.824Z,0.00
2023-10-30T07:56:03.397Z,0.00
2023-10-30T07:58:51.652Z,0.00
2023-10-30T08:01:40.371Z,0.00
2023-10-30T08:04:30.457Z,0.00
2023-10-30T08:07:18.881Z,0.00
2023-10-30T08:10:08.041Z,0.00
2023-10-30T08:12:57.567Z,0.00
2023-10-30T08:15:45.667Z,0.00
2023-10-30T08:18:33.578Z,0.00
2023-10-30T08:21:22.796Z,0.00
2023-10-30T08:24:11.852Z,0.00
2023-10-30T08:27:03.670Z,0.00
2023-10-30T08:29:51.138Z,0.00
2023-10-30T08:32:40.677Z,0.00
2023-10-30T08:35:28.697Z,0.00
2023-10-30T08:38:18.256Z,0.00
2023-10-30T08:41:05.966Z,0.00
2023-10-30T08:43:54.355Z,0.00
2023-10-30T08:46:42.227Z,0.00
2023-10-30T08:49:30.372Z,0.00
2023-10-30T08:52:17.935Z,0.00
2023-10-30T08:55:07.964Z,0.00
2023-10-30T08:57:55.779Z,0.00
2023-10-30T09:00:43.703Z,0.00
2023-10-30T09:03:32.640Z,0.00
2023-10-30T09:06:20.523Z,0.00
2023-10-30T09:09:08.961Z,0.00
2023-10-30T09:11:58.018Z,0.00
2023-10-30T09:14:45.766Z,0.00
2023-10-30T09:17:33.256Z,50.98
2023-10-30T09:20:21.569Z,100.00
2023-10-30T09:23:09.521Z,100.00
2023-10-30T09:25:57.288Z,100.00
2023-10-30T09:28:46.207Z,100.00
2023-10-30T09:31:34.401Z,100.00
2023-10-30T09:34:23.593Z,100.00
2023-10-30T09:37:12.902Z,100.00
2023-10-30T09:40:01.654Z,100.00
2023-10-30T09:42:53.489Z,100.00
2023-10-30T09:45:45.731Z,100.00
2023-10-30T09:48:35.886Z,100.00
2023-10-30T09:51:24.918Z,100.00
2023-10-30T09:54:13.659Z,100.00
2023-10-30T09:57:04.347Z,100.00
2023-10-30T09:59:56.062Z,100.00
2023-10-30T10:02:45.393Z,100.00
2023-10-30T10:05:33.954Z,100.00
2023-10-30T10:08:22.835Z,100.00
2023-10-30T10:11:10.782Z,100.00
2023-10-30T10:14:06.037Z,100.00
2023-10-30T10:16:54.800Z,100.00
2023-10-30T10:19:49.217Z,100.00
2023-10-30T10:22:37.404Z,100.00
2023-10-30T10:25:27.066Z,100.00
2023-10-30T10:28:14.876Z,100.00
2023-10-30T10:31:05.596Z,100.00
2023-10-30T10:33:55.782Z,100.00
2023-10-30T10:36:47.252Z,100.00
2023-10-30T10:39:52.535Z,100.00
2023-10-30T10:42:40.471Z,100.00
2023-10-30T10:45:28.893Z,100.00
2023-10-30T10:48:18.003Z,100.00
2023-10-30T10:51:07.313Z,100.00
2023-10-30T10:53:57.879Z,100.00
2023-10-30T10:56:54.970Z,100.00
2023-10-30T10:59:47.279Z,100.00
2023-10-30T11:02:49.240Z,100.00
2023-10-30T11:05:38.256Z,100.00
2023-10-30T11:08:50.548Z,100.00
2023-10-30T11:11:57.396Z,100.00
2023-10-30T11:14:54.522Z,100.00
2023-10-30T11:17:42.746Z,100.00
2023-10-30T11:20:32.577Z,100.00
2023-10-30T11:23:56.210Z,100.00
2023-10-30T11:26:45.887Z,100.00
2023-10-30T11:29:56.009Z,100.00
2023-10-30T11:32:58.521Z,100.00
2023-10-30T11:35:47.744Z,100.00
2023-10-30T11:38:49.689Z,100.00
2023-10-30T11:41:39.579Z,100.00
2023-10-30T11:44:33.917Z,100.00
2023-10-30T11:47:23.660Z,100.00
2023-10-30T11:50:12.144Z,100.00
2023-10-30T11:53:10.507Z,100.00
2023-10-30T11:55:59.814Z,100.00
2023-10-30T11:58:47.753Z,100.00
2023-10-30T12:01:39.662Z,100.00
2023-10-30T12:04:28.803Z,100.00
2023-10-30T12:07:16.628Z,100.00
2023-10-30T12:10:06.004Z,100.00
2023-10-30T12:12:56.158Z,100.00
2023-10-30T12:15:46.478Z,100.00
2023-10-30T12:18:37.940Z,100.00
2023-10-30T12:21:26.239Z,100.00
2023-10-30T12:24:16.561Z,100.00
2023-10-30T12:27:04.498Z,100.00
2023-10-30T12:29:59.970Z,100.00
2023-10-30T12:32:55.537Z,100.00
2023-10-30T12:35:57.469Z,100.00
2023-10-30T12:38:50.599Z,100.00
2023-10-30T12:41:38.521Z,100.00
2023-10-30T12:44:27.585Z,100.00
2023-10-30T12:47:15.709Z,100.00
2023-10-30T12:50:04.506Z,100.00
2023-10-30T12:52:53.698Z,100.00
2023-10-30T12:55:41.436Z,100.00
2023-10-30T12:58:29.127Z,100.00
2023-10-30T13:01:16.894Z,100.00
2023-10-30T13:04:05.263Z,100.00
2023-10-30T13:06:53.203Z,100.00
2023-10-30T13:09:42.436Z,100.00
2023-10-30T13:12:31.758Z,100.00
2023-10-30T13:15:20.883Z,100.00
2023-10-30T13:18:10.042Z,100.00
2023-10-30T13:20:58.085Z,100.00
2023-10-30T13:23:48.614Z,100.00
2023-10-30T13:26:39.713Z,100.00
2023-10-30T13:29:28.908Z,100.00
2023-10-30T13:32:16.988Z,100.00
2023-10-30T13:35:05.240Z,100.00
2023-10-30T13:37:53.416Z,100.00
2023-10-30T13:40:41.283Z,100.00
2023-10-30T13:43:32.342Z,100.00
2023-10-30T13:46:20.120Z,100.00
2023-10-30T13:49:08.202Z,100.00
2023-10-30T13:51:59.009Z,100.00
2023-10-30T13:54:48.183Z,100.00
2023-10-30T13:57:36.154Z,100.00
2023-10-30T14:00:25.644Z,100.00
2023-10-30T14:03:14.423Z,100.00
2023-10-30T14:06:02.539Z,100.00
2023-10-30T14:08:51.177Z,100.00
2023-10-30T14:11:39.310Z,100.00
2023-10-30T14:14:27.297Z,100.00
2023-10-30T14:17:16.361Z,100.00
2023-10-30T14:20:04.653Z,100.00
2023-10-30T14:22:52.355Z,100.00
2023-10-30T14:25:40.035Z,100.00
2023-10-30T14:28:27.444Z,100.00
2023-10-30T14:31:15.367Z,100.00
2023-10-30T14:34:04.507Z,100.00
2023-10-30T14:36:52.316Z,100.00
2023-10-30T14:39:40.057Z,100.00
2023-10-30T14:42:27.513Z,100.00
2023-10-30T14:45:15.687Z,100.00
2023-10-30T14:48:04.033Z,100.00
2023-10-30T14:50:57.669Z,100.00
2023-10-30T14:53:45.261Z,100.00
2023-10-30T14:56:34.938Z,100.00
2023-10-30T14:59:22.949Z,100.00
2023-10-30T15:02:10.925Z,100.00
2023-10-30T15:05:01.299Z,100.00
2023-10-30T15:07:52.160Z,100.00
2023-10-30T15:10:39.952Z,100.00
2023-10-30T15:13:27.926Z,100.00
2023-10-30T15:16:15.825Z,100.00
2023-10-30T15:19:04.102Z,100.00
2023-10-30T15:21:52.119Z,100.00
2023-10-30T15:24:43.320Z,100.00
2023-10-30T15:27:34.838Z,100.00
2023-10-30T15:30:22.436Z,100.00
2023-10-30T15:33:10.149Z,100.00
2023-10-30T15:35:58.164Z,100.00
2023-10-30T15:38:45.730Z,100.00
2023-10-30T15:41:37.590Z,100.00
2023-10-30T15:44:25.366Z,100.00
2023-10-30T15:47:24.312Z,100.00
2023-10-30T15:50:13.006Z,100.00
2023-10-30T16:01:33.631Z,100.00
2023-10-30T16:04:23.971Z,100.00
2023-10-30T16:07:12.766Z,100.00
2023-10-30T16:12:51.601Z,100.00
2023-10-30T16:15:40.594Z,100.00
2023-10-30T16:18:28.367Z,100.00
2023-10-30T16:21:17.179Z,100.00
2023-10-30T16:24:05.941Z,100.00
2023-10-30T16:26:54.109Z,100.00
2023-10-30T16:29:41.906Z,100.00
2023-10-30T16:32:31.174Z,100.00
2023-10-30T16:35:18.966Z,100.00
2023-10-30T16:38:06.755Z,100.00
2023-10-30T16:40:54.641Z,100.00
2023-10-30T16:43:42.475Z,100.00
2023-10-30T16:46:30.406Z,100.00
2023-10-30T16:49:19.947Z,100.00
2023-10-30T16:52:07.731Z,100.00
2023-10-30T16:54:56.707Z,100.00
2023-10-30T16:57:44.662Z,100.00
2023-10-30T17:00:32.331Z,100.00
2023-10-30T17:03:20.120Z,100.00
2023-10-30T17:06:10.544Z,100.00
2023-10-30T17:08:58.598Z,100.00
2023-10-30T17:11:46.590Z,100.00
2023-10-30T17:14:34.156Z,100.00
2023-10-30T17:17:22.355Z,100.00
2023-10-30T17:20:12.591Z,100.00
2023-10-30T17:23:01.691Z,100.00
2023-10-30T17:25:49.731Z,100.00
2023-10-30T17:28:37.519Z,100.00
2023-10-30T17:31:25.311Z,100.00
2023-10-30T17:34:14.108Z,100.00
2023-10-30T17:37:01.924Z,100.00
2023-10-30T17:39:52.795Z,100.00
2023-10-30T17:42:41.737Z,100.00
2023-10-30T17:45:29.412Z,100.00
2023-10-30T17:48:17.184Z,100.00
2023-10-30T17:51:05.787Z,100.00
2023-10-30T17:53:53.643Z,100.00
2023-10-30T17:56:42.783Z,100.00
2023-10-30T17:59:30.838Z,100.00
2023-10-30T18:02:19.520Z,100.00
2023-10-30T18:05:08.264Z,100.00
2023-10-30T18:07:56.377Z,100.00
2023-10-30T18:10:46.779Z,100.00
2023-10-30T18:13:36.053Z,100.00
2023-10-30T18:16:23.868Z,100.00
2023-10-30T18:19:13.579Z,100.00
2023-10-30T18:22:01.460Z,100.00
2023-10-30T18:24:49.297Z,100.00
2023-10-30T18:27:37.406Z,100.00
2023-10-30T18:30:26.668Z,100.00
2023-10-30T18:33:14.647Z,100.00
2023-10-30T18:36:02.477Z,100.00
2023-10-30T18:38:50.341Z,100.00
2023-10-30T18:41:38.138Z,100.00
2023-10-30T18:44:26.149Z,100.00
2023-10-30T18:47:15.746Z,100.00
2023-10-30T18:50:04.505Z,100.00
2023-10-30T18:52:52.563Z,100.00
2023-10-30T18:55:40.430Z,100.00
2023-10-30T18:58:29.894Z,100.00
2023-10-30T19:01:20.241Z,100.00
2023-10-30T19:04:09.713Z,100.00
2023-10-30T19:06:57.517Z,100.00
2023-10-30T19:09:45.060Z,100.00
2023-10-30T19:12:33.813Z,100.00
2023-10-30T19:15:21.623Z,100.00
2023-10-30T19:18:09.957Z,100.00
2023-10-30T19:20:59.204Z,100.00
2023-10-30T19:23:46.714Z,100.00
2023-10-30T19:26:34.403Z,100.00
2023-10-30T19:29:22.123Z,100.00
2023-10-30T19:32:10.161Z,100.00
2023-10-30T19:34:58.090Z,100.00
2023-10-30T19:37:47.351Z,100.00
2023-10-30T19:40:36.699Z,100.00
2023-10-30T19:43:24.230Z,100.00
2023-10-30T19:46:11.826Z,100.00
2023-10-30T19:48:59.480Z,100.00
2023-10-30T19:51:55.870Z,100.00
2023-10-30T19:54:48.214Z,100.00
2023-10-30T19:57:37.037Z,100.00
2023-10-30T20:00:24.926Z,100.00
2023-10-30T20:03:12.885Z,100.00
2023-10-30T20:06:00.873Z,100.00
2023-10-30T20:08:48.331Z,100.00
2023-10-30T20:11:38.072Z,100.00
2023-10-30T20:14:29.481Z,100.00
2023-10-30T20:17:17.183Z,100.00
2023-10-30T20:20:05.643Z,100.00
2023-10-30T20:22:53.157Z,100.00
2023-10-30T20:25:40.690Z,100.00
2023-10-30T20:28:29.838Z,100.00
2023-10-30T20:31:17.815Z,100.00
2023-10-30T20:34:05.661Z,100.00
2023-10-30T20:36:53.152Z,100.00
2023-10-30T20:39:40.864Z,100.00
2023-10-30T20:42:28.495Z,100.00
2023-10-30T20:45:17.616Z,100.00
2023-10-30T20:48:06.626Z,100.00
2023-10-30T20:50:54.847Z,100.00
2023-10-30T20:53:42.673Z,100.00
2023-10-30T20:56:30.207Z,100.00
2023-10-30T20:59:17.847Z,100.00
2023-10-30T21:02:06.985Z,100.00
2023-10-30T21:04:56.795Z,100.00
2023-10-30T21:07:45.231Z,100.00
2023-10-30T21:10:32.790Z,100.00
2023-10-30T21:13:21.215Z,100.00
2023-10-30T21:16:09.564Z,100.00
2023-10-30T21:18:59.481Z,100.00
2023-10-30T21:21:47.948Z,100.00
2023-10-30T21:24:35.348Z,100.00
2023-10-30T21:27:22.880Z,100.00
2023-10-30T21:30:11.426Z,100.00
2023-10-30T21:32:59.190Z,100.00
2023-10-30T21:35:48.394Z,100.00
2023-10-30T21:38:37.016Z,100.00
2023-10-30T21:41:24.925Z,100.00
2023-10-30T21:44:12.549Z,100.00
2023-10-30T21:47:00.414Z,100.00
2023-10-30T21:49:48.809Z,100.00
2023-10-30T21:52:38.717Z,100.00
2023-10-30T21:55:26.699Z,100.00
2023-10-30T21:58:20.293Z,100.00
2023-10-30T22:01:08.216Z,100.00
2023-10-30T22:03:56.144Z,100.00
2023-10-30T22:06:44.407Z,100.00
2023-10-30T22:09:33.520Z,100.00
2023-10-30T22:12:21.490Z,100.00
2023-10-30T22:15:11.393Z,100.00
2023-10-30T22:17:59.256Z,100.00
2023-10-30T22:20:46.913Z,100.00
2023-10-30T22:23:34.950Z,100.00
2023-10-30T22:26:24.382Z,100.00
2023-10-30T22:29:11.956Z,100.00
2023-10-30T22:31:59.585Z,100.00
2023-10-30T22:34:47.438Z,100.00
2023-10-30T22:37:35.488Z,100.00
2023-10-30T22:40:23.488Z,100.00
2023-10-30T22:43:12.533Z,100.00
2023-10-30T22:46:00.337Z,100.00
2023-10-30T22:48:48.406Z,100.00
2023-10-30T22:51:36.102Z,100.00
2023-10-30T22:54:23.762Z,100.00
2023-10-30T22:57:11.801Z,100.00
2023-10-30T23:00:01.102Z,100.00
2023-10-30T23:02:49.573Z,100.00
2023-10-30T23:05:37.686Z,100.00
2023-10-30T23:08:25.454Z,100.00
2023-10-30T23:11:13.279Z,100.00
2023-10-30T23:14:01.389Z,100.00
2023-10-30T23:16:50.543Z,100.00
2023-10-30T23:19:38.239Z,100.00
2023-10-30T23:22:25.968Z,100.00
2023-10-30T23:25:16.430Z,100.00
2023-10-30T23:28:04.244Z,100.00
2023-10-30T23:30:52.043Z,100.00
2023-10-30T23:33:41.097Z,100.00
2023-10-30T23:36:28.812Z,100.00
2023-10-30T23:39:16.391Z,100.00
2023-10-30T23:42:04.274Z,100.00
2023-10-30T23:44:51.992Z,100.00
2023-10-30T23:47:39.905Z,100.00
2023-10-30T23:50:29.396Z,100.00
2023-10-30T23:53:17.327Z,100.00
2023-10-30T23:56:06.021Z,100.00
2023-10-30T23:58:53.622Z,100.00
